sensor_id;sensor_type;location;lat;lon;timestamp;P1;durP1;ratioP1;P2;durP2;ratioP2
27999;SDS011;15328;50.860;10.562;2023-05-19T00:04:35;3.05;;;1.35;;
27999;SDS011;15328;50.860;10.562;2023-05-19T00:09:39;2.55;;;1.10;;
27999;SDS011;15328;50.860;10.562;2023-05-19T00:14:40;4.65;;;1.45;;
27999;SDS011;15328;50.860;10.562;2023-05-19T00:19:41;3.42;;;1.45;;
27999;SDS011;15328;50.860;10.562;2023-05-19T00:24:45;6.60;;;1.48;;
27999;SDS011;15328;50.860;10.562;2023-05-19T00:29:45;3.03;;;1.27;;
27999;SDS011;15328;50.860;10.562;2023-05-19T00:34:46;2.90;;;1.45;;
27999;SDS011;15328;50.860;10.562;2023-05-19T00:39:47;3.50;;;1.48;;
27999;SDS011;15328;50.860;10.562;2023-05-19T00:44:48;2.90;;;1.10;;
27999;SDS011;15328;50.860;10.562;2023-05-19T00:49:48;4.47;;;1.47;;
27999;SDS011;15328;50.860;10.562;2023-05-19T00:54:48;2.92;;;1.27;;
27999;SDS011;15328;50.860;10.562;2023-05-19T00:59:50;3.55;;;1.40;;
27999;SDS011;15328;50.860;10.562;2023-05-19T01:04:51;6.53;;;1.50;;
27999;SDS011;15328;50.860;10.562;2023-05-19T01:09:52;3.38;;;1.55;;
27999;SDS011;15328;50.860;10.562;2023-05-19T01:14:53;4.85;;;1.73;;
27999;SDS011;15328;50.860;10.562;2023-05-19T01:20:02;3.25;;;1.35;;
27999;SDS011;15328;50.860;10.562;2023-05-19T01:30:48;3.10;;;1.40;;
27999;SDS011;15328;50.860;10.562;2023-05-19T01:35:52;3.90;;;1.48;;
27999;SDS011;15328;50.860;10.562;2023-05-19T01:40:54;3.60;;;1.23;;
27999;SDS011;15328;50.860;10.562;2023-05-19T01:45:56;4.03;;;1.52;;
27999;SDS011;15328;50.860;10.562;2023-05-19T01:50:57;4.60;;;1.40;;
27999;SDS011;15328;50.860;10.562;2023-05-19T01:55:58;4.25;;;1.60;;
27999;SDS011;15328;50.860;10.562;2023-05-19T02:01:43;3.10;;;1.67;;
27999;SDS011;15328;50.860;10.562;2023-05-19T02:06:48;3.42;;;1.67;;
27999;SDS011;15328;50.860;10.562;2023-05-19T02:12:00;3.75;;;1.35;;
27999;SDS011;15328;50.860;10.562;2023-05-19T02:17:05;3.42;;;1.40;;
27999;SDS011;15328;50.860;10.562;2023-05-19T02:22:05;3.35;;;1.25;;
27999;SDS011;15328;50.860;10.562;2023-05-19T02:27:06;3.78;;;1.35;;
27999;SDS011;15328;50.860;10.562;2023-05-19T02:32:06;3.38;;;1.40;;
27999;SDS011;15328;50.860;10.562;2023-05-19T02:37:07;2.78;;;1.40;;
27999;SDS011;15328;50.860;10.562;2023-05-19T02:42:07;4.45;;;1.85;;
27999;SDS011;15328;50.860;10.562;2023-05-19T02:47:07;2.67;;;1.45;;
27999;SDS011;15328;50.860;10.562;2023-05-19T02:52:08;4.22;;;1.48;;
27999;SDS011;15328;50.860;10.562;2023-05-19T02:57:08;3.50;;;1.40;;
27999;SDS011;15328;50.860;10.562;2023-05-19T03:02:10;3.08;;;1.40;;
27999;SDS011;15328;50.860;10.562;2023-05-19T03:07:10;3.97;;;1.50;;
27999;SDS011;15328;50.860;10.562;2023-05-19T03:12:12;2.08;;;1.30;;
27999;SDS011;15328;50.860;10.562;2023-05-19T03:17:12;3.03;;;1.60;;
27999;SDS011;15328;50.860;10.562;2023-05-19T03:22:12;4.38;;;1.90;;
27999;SDS011;15328;50.860;10.562;2023-05-19T03:27:13;4.23;;;1.50;;
27999;SDS011;15328;50.860;10.562;2023-05-19T03:32:13;2.67;;;1.53;;
27999;SDS011;15328;50.860;10.562;2023-05-19T03:37:13;4.18;;;1.90;;
27999;SDS011;15328;50.860;10.562;2023-05-19T03:42:14;2.50;;;1.47;;
27999;SDS011;15328;50.860;10.562;2023-05-19T03:47:15;3.72;;;1.60;;
27999;SDS011;15328;50.860;10.562;2023-05-19T03:52:15;4.03;;;1.90;;
27999;SDS011;15328;50.860;10.562;2023-05-19T03:57:15;3.90;;;1.80;;
27999;SDS011;15328;50.860;10.562;2023-05-19T04:02:16;2.87;;;1.50;;
27999;SDS011;15328;50.860;10.562;2023-05-19T04:07:16;3.75;;;1.60;;
27999;SDS011;15328;50.860;10.562;2023-05-19T04:12:16;3.73;;;1.70;;
27999;SDS011;15328;50.860;10.562;2023-05-19T04:17:17;5.47;;;2.00;;
27999;SDS011;15328;50.860;10.562;2023-05-19T04:22:17;4.47;;;1.70;;
27999;SDS011;15328;50.860;10.562;2023-05-19T04:27:18;4.85;;;1.70;;
27999;SDS011;15328;50.860;10.562;2023-05-19T04:32:18;6.20;;;2.25;;
27999;SDS011;15328;50.860;10.562;2023-05-19T04:37:18;4.35;;;1.67;;
27999;SDS011;15328;50.860;10.562;2023-05-19T04:42:19;6.70;;;2.60;;
27999;SDS011;15328;50.860;10.562;2023-05-19T04:47:19;5.83;;;1.90;;
27999;SDS011;15328;50.860;10.562;2023-05-19T04:52:20;4.93;;;1.95;;
27999;SDS011;15328;50.860;10.562;2023-05-19T04:57:21;4.30;;;1.70;;
27999;SDS011;15328;50.860;10.562;2023-05-19T05:02:22;5.30;;;2.10;;
27999;SDS011;15328;50.860;10.562;2023-05-19T05:07:22;6.45;;;2.05;;
27999;SDS011;15328;50.860;10.562;2023-05-19T05:12:22;4.72;;;1.65;;
27999;SDS011;15328;50.860;10.562;2023-05-19T05:17:23;3.65;;;1.70;;
27999;SDS011;15328;50.860;10.562;2023-05-19T05:22:24;4.80;;;1.70;;
27999;SDS011;15328;50.860;10.562;2023-05-19T05:27:25;4.45;;;1.80;;
27999;SDS011;15328;50.860;10.562;2023-05-19T05:32:26;4.55;;;1.65;;
27999;SDS011;15328;50.860;10.562;2023-05-19T05:37:26;5.97;;;2.00;;
27999;SDS011;15328;50.860;10.562;2023-05-19T05:42:26;6.63;;;2.20;;
27999;SDS011;15328;50.860;10.562;2023-05-19T05:47:27;4.13;;;2.20;;
27999;SDS011;15328;50.860;10.562;2023-05-19T05:52:28;4.82;;;1.73;;
27999;SDS011;15328;50.860;10.562;2023-05-19T05:57:29;4.28;;;1.83;;
27999;SDS011;15328;50.860;10.562;2023-05-19T06:02:30;4.75;;;1.90;;
27999;SDS011;15328;50.860;10.562;2023-05-19T06:07:30;4.13;;;2.20;;
27999;SDS011;15328;50.860;10.562;2023-05-19T06:12:31;5.50;;;2.13;;
27999;SDS011;15328;50.860;10.562;2023-05-19T06:17:31;6.78;;;2.38;;
27999;SDS011;15328;50.860;10.562;2023-05-19T06:22:34;6.93;;;2.40;;
27999;SDS011;15328;50.860;10.562;2023-05-19T06:27:35;7.75;;;2.60;;
27999;SDS011;15328;50.860;10.562;2023-05-19T06:32:35;6.00;;;2.07;;
27999;SDS011;15328;50.860;10.562;2023-05-19T06:37:35;6.73;;;2.20;;
27999;SDS011;15328;50.860;10.562;2023-05-19T06:42:36;6.53;;;2.50;;
27999;SDS011;15328;50.860;10.562;2023-05-19T06:47:36;7.20;;;2.53;;
27999;SDS011;15328;50.860;10.562;2023-05-19T06:52:36;5.18;;;2.40;;
27999;SDS011;15328;50.860;10.562;2023-05-19T06:57:37;6.73;;;2.47;;
27999;SDS011;15328;50.860;10.562;2023-05-19T07:02:37;8.18;;;2.75;;
27999;SDS011;15328;50.860;10.562;2023-05-19T07:07:38;5.35;;;2.38;;
27999;SDS011;15328;50.860;10.562;2023-05-19T07:12:38;6.43;;;2.25;;
27999;SDS011;15328;50.860;10.562;2023-05-19T07:17:38;6.93;;;2.70;;
27999;SDS011;15328;50.860;10.562;2023-05-19T07:22:39;7.43;;;2.90;;
27999;SDS011;15328;50.860;10.562;2023-05-19T07:27:39;4.93;;;2.33;;
27999;SDS011;15328;50.860;10.562;2023-05-19T07:32:40;7.93;;;2.85;;
27999;SDS011;15328;50.860;10.562;2023-05-19T07:37:40;8.43;;;2.93;;
27999;SDS011;15328;50.860;10.562;2023-05-19T07:42:40;5.45;;;2.70;;
27999;SDS011;15328;50.860;10.562;2023-05-19T07:47:41;5.93;;;2.80;;
27999;SDS011;15328;50.860;10.562;2023-05-19T07:52:41;4.38;;;2.75;;
27999;SDS011;15328;50.860;10.562;2023-05-19T07:57:41;7.50;;;2.60;;
27999;SDS011;15328;50.860;10.562;2023-05-19T08:02:42;4.30;;;2.42;;
27999;SDS011;15328;50.860;10.562;2023-05-19T08:07:46;5.68;;;2.70;;
27999;SDS011;15328;50.860;10.562;2023-05-19T08:12:46;6.77;;;3.10;;
27999;SDS011;15328;50.860;10.562;2023-05-19T08:17:47;6.70;;;2.80;;
27999;SDS011;15328;50.860;10.562;2023-05-19T08:22:47;8.90;;;3.13;;
27999;SDS011;15328;50.860;10.562;2023-05-19T08:27:47;6.82;;;2.88;;
27999;SDS011;15328;50.860;10.562;2023-05-19T08:32:48;5.80;;;3.03;;
27999;SDS011;15328;50.860;10.562;2023-05-19T08:37:48;13.38;;;3.65;;
27999;SDS011;15328;50.860;10.562;2023-05-19T08:42:48;9.70;;;3.50;;
27999;SDS011;15328;50.860;10.562;2023-05-19T08:47:49;5.05;;;2.60;;
27999;SDS011;15328;50.860;10.562;2023-05-19T08:52:51;5.70;;;2.90;;
27999;SDS011;15328;50.860;10.562;2023-05-19T08:57:54;5.07;;;2.80;;
27999;SDS011;15328;50.860;10.562;2023-05-19T09:02:55;7.70;;;3.58;;
27999;SDS011;15328;50.860;10.562;2023-05-19T09:07:56;5.60;;;2.97;;
27999;SDS011;15328;50.860;10.562;2023-05-19T09:12:59;4.35;;;2.35;;
27999;SDS011;15328;50.860;10.562;2023-05-19T09:18:07;8.02;;;3.30;;
27999;SDS011;15328;50.860;10.562;2023-05-19T09:23:16;5.95;;;3.20;;
27999;SDS011;15328;50.860;10.562;2023-05-19T09:33:24;6.43;;;3.30;;
27999;SDS011;15328;50.860;10.562;2023-05-19T09:38:24;7.30;;;3.42;;
27999;SDS011;15328;50.860;10.562;2023-05-19T09:43:26;5.70;;;2.95;;
27999;SDS011;15328;50.860;10.562;2023-05-19T09:48:30;4.43;;;2.80;;
27999;SDS011;15328;50.860;10.562;2023-05-19T09:53:31;5.38;;;2.75;;
27999;SDS011;15328;50.860;10.562;2023-05-19T09:58:36;6.25;;;2.65;;
27999;SDS011;15328;50.860;10.562;2023-05-19T10:03:41;4.70;;;2.50;;
27999;SDS011;15328;50.860;10.562;2023-05-19T10:08:42;4.70;;;1.75;;
27999;SDS011;15328;50.860;10.562;2023-05-19T10:13:42;5.47;;;2.03;;
27999;SDS011;15328;50.860;10.562;2023-05-19T10:18:46;4.30;;;2.30;;
27999;SDS011;15328;50.860;10.562;2023-05-19T10:23:46;4.32;;;2.00;;
27999;SDS011;15328;50.860;10.562;2023-05-19T10:28:46;3.93;;;2.30;;
27999;SDS011;15328;50.860;10.562;2023-05-19T10:39:20;4.63;;;1.63;;
27999;SDS011;15328;50.860;10.562;2023-05-19T10:49:33;3.80;;;1.90;;
27999;SDS011;15328;50.860;10.562;2023-05-19T10:54:38;6.10;;;1.70;;
27999;SDS011;15328;50.860;10.562;2023-05-19T10:59:40;4.80;;;1.95;;
27999;SDS011;15328;50.860;10.562;2023-05-19T11:04:44;4.53;;;1.90;;
27999;SDS011;15328;50.860;10.562;2023-05-19T11:09:52;4.10;;;1.70;;
27999;SDS011;15328;50.860;10.562;2023-05-19T11:14:53;3.67;;;1.73;;
27999;SDS011;15328;50.860;10.562;2023-05-19T11:19:55;4.13;;;1.85;;
27999;SDS011;15328;50.860;10.562;2023-05-19T11:24:56;3.65;;;1.60;;
27999;SDS011;15328;50.860;10.562;2023-05-19T11:30:00;7.22;;;2.13;;
27999;SDS011;15328;50.860;10.562;2023-05-19T11:35:18;5.07;;;2.10;;
27999;SDS011;15328;50.860;10.562;2023-05-19T11:40:20;1.88;;;1.35;;
27999;SDS011;15328;50.860;10.562;2023-05-19T11:45:24;2.45;;;1.67;;
27999;SDS011;15328;50.860;10.562;2023-05-19T11:50:25;2.83;;;1.60;;
27999;SDS011;15328;50.860;10.562;2023-05-19T11:55:26;2.40;;;1.58;;
27999;SDS011;15328;50.860;10.562;2023-05-19T12:00:27;2.50;;;1.38;;
27999;SDS011;15328;50.860;10.562;2023-05-19T12:05:28;3.42;;;1.45;;
27999;SDS011;15328;50.860;10.562;2023-05-19T12:10:30;3.53;;;1.73;;
27999;SDS011;15328;50.860;10.562;2023-05-19T12:15:32;3.85;;;1.70;;
27999;SDS011;15328;50.860;10.562;2023-05-19T12:20:33;2.65;;;1.60;;
27999;SDS011;15328;50.860;10.562;2023-05-19T12:25:36;3.72;;;1.30;;
27999;SDS011;15328;50.860;10.562;2023-05-19T12:30:37;2.25;;;1.10;;
27999;SDS011;15328;50.860;10.562;2023-05-19T12:35:37;4.05;;;1.50;;
27999;SDS011;15328;50.860;10.562;2023-05-19T12:40:38;3.40;;;1.60;;
27999;SDS011;15328;50.860;10.562;2023-05-19T12:45:38;3.80;;;1.60;;
27999;SDS011;15328;50.860;10.562;2023-05-19T12:50:41;4.35;;;1.45;;
27999;SDS011;15328;50.860;10.562;2023-05-19T12:55:44;3.90;;;1.70;;
27999;SDS011;15328;50.860;10.562;2023-05-19T13:00:45;3.42;;;1.10;;
27999;SDS011;15328;50.860;10.562;2023-05-19T13:05:49;2.33;;;1.13;;
27999;SDS011;15328;50.860;10.562;2023-05-19T13:10:50;1.75;;;1.17;;
27999;SDS011;15328;50.860;10.562;2023-05-19T13:15:51;2.65;;;1.20;;
27999;SDS011;15328;50.860;10.562;2023-05-19T13:20:51;3.00;;;1.70;;
27999;SDS011;15328;50.860;10.562;2023-05-19T13:25:53;5.07;;;1.50;;
27999;SDS011;15328;50.860;10.562;2023-05-19T13:30:53;4.50;;;1.73;;
27999;SDS011;15328;50.860;10.562;2023-05-19T13:35:54;3.65;;;1.70;;
27999;SDS011;15328;50.860;10.562;2023-05-19T13:40:55;2.40;;;1.50;;
27999;SDS011;15328;50.860;10.562;2023-05-19T13:45:56;2.87;;;1.60;;
27999;SDS011;15328;50.860;10.562;2023-05-19T13:50:56;3.67;;;1.70;;
27999;SDS011;15328;50.860;10.562;2023-05-19T13:55:56;4.10;;;1.87;;
27999;SDS011;15328;50.860;10.562;2023-05-19T14:00:57;3.57;;;1.73;;
27999;SDS011;15328;50.860;10.562;2023-05-19T14:05:59;4.93;;;1.90;;
27999;SDS011;15328;50.860;10.562;2023-05-19T14:10:59;2.87;;;1.40;;
27999;SDS011;15328;50.860;10.562;2023-05-19T14:15:59;3.70;;;1.53;;
27999;SDS011;15328;50.860;10.562;2023-05-19T14:21:00;3.05;;;1.50;;
27999;SDS011;15328;50.860;10.562;2023-05-19T14:26:03;2.23;;;1.40;;
27999;SDS011;15328;50.860;10.562;2023-05-19T14:31:04;3.03;;;1.50;;
27999;SDS011;15328;50.860;10.562;2023-05-19T14:36:05;3.30;;;1.73;;
27999;SDS011;15328;50.860;10.562;2023-05-19T14:41:06;3.63;;;1.60;;
27999;SDS011;15328;50.860;10.562;2023-05-19T14:46:06;3.10;;;1.40;;
27999;SDS011;15328;50.860;10.562;2023-05-19T14:51:06;2.77;;;1.50;;
27999;SDS011;15328;50.860;10.562;2023-05-19T14:56:10;2.83;;;1.37;;
27999;SDS011;15328;50.860;10.562;2023-05-19T15:01:10;2.28;;;1.50;;
27999;SDS011;15328;50.860;10.562;2023-05-19T15:06:10;2.37;;;1.30;;
27999;SDS011;15328;50.860;10.562;2023-05-19T15:11:11;5.20;;;2.77;;
27999;SDS011;15328;50.860;10.562;2023-05-19T15:16:11;5.30;;;2.93;;
27999;SDS011;15328;50.860;10.562;2023-05-19T15:21:11;4.70;;;2.30;;
27999;SDS011;15328;50.860;10.562;2023-05-19T15:26:12;4.18;;;1.80;;
27999;SDS011;15328;50.860;10.562;2023-05-19T15:31:12;2.97;;;1.67;;
27999;SDS011;15328;50.860;10.562;2023-05-19T15:36:12;3.03;;;1.60;;
27999;SDS011;15328;50.860;10.562;2023-05-19T15:41:15;4.15;;;1.60;;
27999;SDS011;15328;50.860;10.562;2023-05-19T15:46:15;4.00;;;1.88;;
27999;SDS011;15328;50.860;10.562;2023-05-19T15:51:18;4.13;;;1.98;;
27999;SDS011;15328;50.860;10.562;2023-05-19T15:56:18;4.93;;;1.85;;
27999;SDS011;15328;50.860;10.562;2023-05-19T16:01:20;6.50;;;3.85;;
27999;SDS011;15328;50.860;10.562;2023-05-19T16:06:20;4.57;;;2.25;;
27999;SDS011;15328;50.860;10.562;2023-05-19T16:11:21;6.97;;;4.73;;
27999;SDS011;15328;50.860;10.562;2023-05-19T16:16:23;11.32;;;6.75;;
27999;SDS011;15328;50.860;10.562;2023-05-19T16:21:23;8.93;;;5.00;;
27999;SDS011;15328;50.860;10.562;2023-05-19T16:26:24;3.20;;;2.23;;
27999;SDS011;15328;50.860;10.562;2023-05-19T16:31:25;5.50;;;2.28;;
27999;SDS011;15328;50.860;10.562;2023-05-19T16:36:25;3.53;;;2.10;;
27999;SDS011;15328;50.860;10.562;2023-05-19T16:41:25;4.87;;;2.87;;
27999;SDS011;15328;50.860;10.562;2023-05-19T16:46:26;5.73;;;2.53;;
27999;SDS011;15328;50.860;10.562;2023-05-19T16:51:26;5.63;;;2.88;;
27999;SDS011;15328;50.860;10.562;2023-05-19T16:56:27;3.35;;;2.40;;
27999;SDS011;15328;50.860;10.562;2023-05-19T17:01:27;8.23;;;3.33;;
27999;SDS011;15328;50.860;10.562;2023-05-19T17:06:28;4.13;;;2.10;;
27999;SDS011;15328;50.860;10.562;2023-05-19T17:11:28;3.20;;;2.28;;
27999;SDS011;15328;50.860;10.562;2023-05-19T17:16:28;3.53;;;2.10;;
27999;SDS011;15328;50.860;10.562;2023-05-19T17:21:29;3.70;;;1.87;;
27999;SDS011;15328;50.860;10.562;2023-05-19T17:26:30;3.83;;;1.90;;
27999;SDS011;15328;50.860;10.562;2023-05-19T17:31:31;5.43;;;1.98;;
27999;SDS011;15328;50.860;10.562;2023-05-19T17:36:31;3.70;;;2.27;;
27999;SDS011;15328;50.860;10.562;2023-05-19T17:41:32;5.23;;;2.30;;
27999;SDS011;15328;50.860;10.562;2023-05-19T17:46:32;3.55;;;1.70;;
27999;SDS011;15328;50.860;10.562;2023-05-19T17:51:38;3.67;;;1.70;;
27999;SDS011;15328;50.860;10.562;2023-05-19T17:56:39;2.72;;;1.70;;
27999;SDS011;15328;50.860;10.562;2023-05-19T18:01:43;4.50;;;2.17;;
27999;SDS011;15328;50.860;10.562;2023-05-19T18:06:44;4.50;;;2.85;;
27999;SDS011;15328;50.860;10.562;2023-05-19T18:11:45;4.35;;;2.30;;
27999;SDS011;15328;50.860;10.562;2023-05-19T18:16:45;3.90;;;2.27;;
27999;SDS011;15328;50.860;10.562;2023-05-19T18:21:47;4.47;;;2.40;;
27999;SDS011;15328;50.860;10.562;2023-05-19T18:26:47;4.28;;;2.45;;
27999;SDS011;15328;50.860;10.562;2023-05-19T18:31:48;5.70;;;1.90;;
27999;SDS011;15328;50.860;10.562;2023-05-19T18:36:48;5.20;;;1.97;;
27999;SDS011;15328;50.860;10.562;2023-05-19T18:41:48;4.27;;;2.30;;
27999;SDS011;15328;50.860;10.562;2023-05-19T18:46:49;4.40;;;2.10;;
27999;SDS011;15328;50.860;10.562;2023-05-19T18:51:50;5.67;;;2.40;;
27999;SDS011;15328;50.860;10.562;2023-05-19T18:56:50;3.03;;;1.70;;
27999;SDS011;15328;50.860;10.562;2023-05-19T19:01:53;6.77;;;3.40;;
27999;SDS011;15328;50.860;10.562;2023-05-19T19:06:54;4.97;;;3.40;;
27999;SDS011;15328;50.860;10.562;2023-05-19T19:11:54;4.60;;;2.80;;
27999;SDS011;15328;50.860;10.562;2023-05-19T19:16:55;6.13;;;2.60;;
27999;SDS011;15328;50.860;10.562;2023-05-19T19:21:55;3.50;;;1.93;;
27999;SDS011;15328;50.860;10.562;2023-05-19T19:26:55;4.30;;;1.92;;
27999;SDS011;15328;50.860;10.562;2023-05-19T19:31:59;3.30;;;1.97;;
27999;SDS011;15328;50.860;10.562;2023-05-19T19:37:07;4.60;;;2.28;;
27999;SDS011;15328;50.860;10.562;2023-05-19T19:42:11;3.20;;;2.10;;
27999;SDS011;15328;50.860;10.562;2023-05-19T19:47:31;4.88;;;2.45;;
27999;SDS011;15328;50.860;10.562;2023-05-19T19:52:37;2.50;;;1.83;;
27999;SDS011;15328;50.860;10.562;2023-05-19T19:57:58;2.97;;;1.80;;
27999;SDS011;15328;50.860;10.562;2023-05-19T20:03:04;5.25;;;2.70;;
27999;SDS011;15328;50.860;10.562;2023-05-19T20:08:05;3.38;;;1.83;;
27999;SDS011;15328;50.860;10.562;2023-05-19T20:13:05;5.07;;;2.17;;
27999;SDS011;15328;50.860;10.562;2023-05-19T20:18:06;4.18;;;2.72;;
27999;SDS011;15328;50.860;10.562;2023-05-19T20:23:06;2.43;;;1.80;;
27999;SDS011;15328;50.860;10.562;2023-05-19T20:28:07;2.20;;;1.55;;
27999;SDS011;15328;50.860;10.562;2023-05-19T20:33:08;3.35;;;1.88;;
27999;SDS011;15328;50.860;10.562;2023-05-19T20:38:08;3.13;;;1.90;;
27999;SDS011;15328;50.860;10.562;2023-05-19T20:43:08;3.05;;;1.90;;
27999;SDS011;15328;50.860;10.562;2023-05-19T20:48:09;4.70;;;2.20;;
27999;SDS011;15328;50.860;10.562;2023-05-19T20:53:10;2.40;;;1.40;;
27999;SDS011;15328;50.860;10.562;2023-05-19T20:58:10;2.72;;;1.70;;
27999;SDS011;15328;50.860;10.562;2023-05-19T21:03:10;3.30;;;2.30;;
27999;SDS011;15328;50.860;10.562;2023-05-19T21:08:11;4.33;;;2.37;;
27999;SDS011;15328;50.860;10.562;2023-05-19T21:13:11;3.60;;;2.23;;
27999;SDS011;15328;50.860;10.562;2023-05-19T21:18:12;5.07;;;2.38;;
27999;SDS011;15328;50.860;10.562;2023-05-19T21:23:12;2.97;;;1.88;;
27999;SDS011;15328;50.860;10.562;2023-05-19T21:28:12;4.03;;;2.00;;
27999;SDS011;15328;50.860;10.562;2023-05-19T21:33:13;3.08;;;2.15;;
27999;SDS011;15328;50.860;10.562;2023-05-19T21:38:13;2.47;;;1.83;;
27999;SDS011;15328;50.860;10.562;2023-05-19T21:43:14;3.65;;;2.03;;
27999;SDS011;15328;50.860;10.562;2023-05-19T21:48:14;4.20;;;2.50;;
27999;SDS011;15328;50.860;10.562;2023-05-19T21:53:15;3.80;;;2.70;;
27999;SDS011;15328;50.860;10.562;2023-05-19T21:58:15;3.45;;;2.65;;
27999;SDS011;15328;50.860;10.562;2023-05-19T22:03:16;4.43;;;2.47;;
27999;SDS011;15328;50.860;10.562;2023-05-19T22:08:16;3.90;;;2.35;;
27999;SDS011;15328;50.860;10.562;2023-05-19T22:13:18;4.10;;;2.33;;
27999;SDS011;15328;50.860;10.562;2023-05-19T22:18:19;4.43;;;3.00;;
27999;SDS011;15328;50.860;10.562;2023-05-19T22:23:19;3.55;;;2.80;;
27999;SDS011;15328;50.860;10.562;2023-05-19T22:28:20;3.47;;;2.60;;
27999;SDS011;15328;50.860;10.562;2023-05-19T22:33:20;3.40;;;2.50;;
27999;SDS011;15328;50.860;10.562;2023-05-19T22:38:20;3.80;;;2.80;;
27999;SDS011;15328;50.860;10.562;2023-05-19T22:43:20;4.90;;;3.70;;
27999;SDS011;15328;50.860;10.562;2023-05-19T22:48:21;5.63;;;4.00;;
27999;SDS011;15328;50.860;10.562;2023-05-19T22:53:21;5.27;;;3.67;;
27999;SDS011;15328;50.860;10.562;2023-05-19T22:58:21;4.82;;;3.13;;
27999;SDS011;15328;50.860;10.562;2023-05-19T23:03:22;4.53;;;3.37;;
27999;SDS011;15328;50.860;10.562;2023-05-19T23:08:22;5.90;;;3.53;;
27999;SDS011;15328;50.860;10.562;2023-05-19T23:13:22;6.73;;;4.20;;
27999;SDS011;15328;50.860;10.562;2023-05-19T23:18:23;5.03;;;3.67;;
27999;SDS011;15328;50.860;10.562;2023-05-19T23:23:23;4.37;;;3.60;;
27999;SDS011;15328;50.860;10.562;2023-05-19T23:28:23;5.03;;;4.07;;
27999;SDS011;15328;50.860;10.562;2023-05-19T23:33:24;5.43;;;3.45;;
27999;SDS011;15328;50.860;10.562;2023-05-19T23:38:27;7.07;;;3.70;;
27999;SDS011;15328;50.860;10.562;2023-05-19T23:43:27;5.72;;;4.15;;
27999;SDS011;15328;50.860;10.562;2023-05-19T23:48:27;6.70;;;3.87;;
27999;SDS011;15328;50.860;10.562;2023-05-19T23:53:30;4.07;;;2.90;;
27999;SDS011;15328;50.860;10.562;2023-05-19T23:58:30;4.85;;;3.65;;
